Time;durP1;ratioP1;P1;durP2;ratioP2;P2;SDS_P1;SDS_P2;PMS_P1;PMS_P2;Temp;Humidity;BMP_temperature;BMP_pressure;BME280_temperature;BME280_humidity;BME280_pressure;Samples;Min_cycle;Max_cycle;Signal;HPM_P1;HPM_P2
2021/01/13 00:00:37;;;;;;;8.98;6.35;;;3.70;81.50;;;;;;5018868;28;20029;-64
2021/01/13 00:03:02;;;;;;;8.98;5.90;;;3.70;81.50;;;;;;5019701;28;20030;-65
2021/01/13 00:05:28;;;;;;;9.05;6.20;;;3.70;81.50;;;;;;5019510;28;20044;-65
2021/01/13 00:07:54;;;;;;;10.43;6.80;;;3.70;81.40;;;;;;5020795;28;20109;-65
2021/01/13 00:10:20;;;;;;;13.18;6.68;;;3.70;81.40;;;;;;5020204;28;20049;-64
2021/01/13 00:12:45;;;;;;;9.85;6.75;;;3.70;81.30;;;;;;5017791;28;20036;-65
2021/01/13 00:15:11;;;;;;;10.45;6.60;;;3.70;81.20;;;;;;5020453;28;20590;-65
2021/01/13 00:17:37;;;;;;;8.95;6.28;;;3.70;81.10;;;;;;5020175;28;20084;-64
2021/01/13 00:20:06;;;;;;;10.75;6.80;;;3.70;81.10;;;;;;5020124;28;20038;-64
2021/01/13 00:22:31;;;;;;;10.13;5.93;;;3.70;81.10;;;;;;5018738;28;20037;-65
2021/01/13 00:24:57;;;;;;;9.50;6.05;;;3.70;81.00;;;;;;5020675;28;20026;-64
2021/01/13 00:27:23;;;;;;;9.77;6.43;;;3.70;80.90;;;;;;5020170;28;20041;-63
2021/01/13 00:29:50;;;;;;;12.27;6.47;;;3.70;80.80;;;;;;5020089;28;20444;-65
2021/01/13 00:32:16;;;;;;;10.02;6.25;;;3.70;80.70;;;;;;5018951;28;20037;-65
2021/01/13 00:34:42;;;;;;;9.77;6.25;;;3.60;80.60;;;;;;5019552;28;20469;-65
2021/01/13 00:37:08;;;;;;;11.32;6.55;;;3.70;80.70;;;;;;5020015;28;20113;-64
2021/01/13 00:39:34;;;;;;;10.15;6.68;;;3.70;80.80;;;;;;5019894;28;20036;-64
2021/01/13 00:42:07;;;;;;;11.70;6.68;;;3.60;80.70;;;;;;5019722;28;20129;-64
2021/01/13 00:44:32;;;;;;;13.32;6.85;;;3.60;80.80;;;;;;5020430;28;20405;-64
2021/01/13 00:46:58;;;;;;;11.00;6.47;;;3.60;80.70;;;;;;5018838;28;20033;-65
2021/01/13 00:49:23;;;;;;;9.18;6.10;;;3.60;80.60;;;;;;5019822;28;20030;-64
2021/01/13 00:51:49;;;;;;;9.63;6.28;;;3.60;80.50;;;;;;5020060;28;20536;-66
2021/01/13 00:54:14;;;;;;;9.75;6.40;;;3.50;80.40;;;;;;5019968;28;20030;-63
2021/01/13 00:56:48;;;;;;;9.18;6.22;;;3.50;80.40;;;;;;5019077;28;20504;-65
2021/01/13 00:59:14;;;;;;;11.07;6.60;;;3.60;81.30;;;;;;5018907;28;20118;-64
2021/01/13 01:01:41;;;;;;;8.52;6.20;;;3.50;80.40;;;;;;5018438;28;20724;-65
2021/01/13 01:04:08;;;;;;;9.73;6.05;;;3.40;80.40;;;;;;5051125;28;20049;-66
2021/01/13 01:06:35;;;;;;;13.02;5.97;;;3.40;80.40;;;;;;5019337;28;20039;-62
2021/01/13 01:09:00;;;;;;;7.88;5.75;;;3.40;80.30;;;;;;5019153;28;20029;-65
2021/01/13 01:11:35;;;;;;;8.82;5.75;;;3.40;80.20;;;;;;5009497;28;20044;-65
2021/01/13 01:14:02;;;;;;;8.45;5.80;;;3.30;79.90;;;;;;4999785;28;20445;-66
2021/01/13 01:16:32;;;;;;;8.13;5.38;;;3.30;79.90;;;;;;5015519;28;20458;-65
2021/01/13 01:18:59;;;;;;;8.27;5.47;;;3.30;79.80;;;;;;5013790;28;20576;-65
2021/01/13 01:21:25;;;;;;;9.00;4.93;;;3.20;79.70;;;;;;5000228;28;20132;-65
2021/01/13 01:23:51;;;;;;;8.10;5.10;;;3.20;79.70;;;;;;4999072;28;20038;-64
2021/01/13 01:26:16;;;;;;;8.02;5.20;;;3.10;79.60;;;;;;5000082;28;20041;-64
2021/01/13 01:28:42;;;;;;;7.38;4.70;;;3.10;79.60;;;;;;4999285;28;20072;-65
2021/01/13 01:31:08;;;;;;;6.70;4.80;;;3.00;79.60;;;;;;4999650;28;20046;-64
2021/01/13 01:33:33;;;;;;;7.90;5.20;;;3.00;79.60;;;;;;4998027;28;20061;-65
2021/01/13 01:35:59;;;;;;;8.45;4.57;;;3.00;79.50;;;;;;4999999;28;20038;-65
2021/01/13 01:38:24;;;;;;;8.98;5.28;;;2.90;79.50;;;;;;4998621;28;20042;-66
2021/01/13 01:40:50;;;;;;;6.40;4.25;;;2.90;79.60;;;;;;4997916;28;20038;-66
2021/01/13 01:43:17;;;;;;;7.75;5.05;;;2.90;79.60;;;;;;4998932;28;20060;-66
2021/01/13 01:45:42;;;;;;;6.65;4.78;;;2.90;79.50;;;;;;4998161;28;20034;-66
2021/01/13 01:48:16;;;;;;;7.07;4.63;;;2.80;79.40;;;;;;4998644;28;20053;-65
2021/01/13 01:50:46;;;;;;;7.35;4.25;;;2.80;79.10;;;;;;4997662;28;20026;-65
2021/01/13 01:53:11;;;;;;;5.75;4.50;;;2.80;79.10;;;;;;4997502;28;20034;-65
2021/01/13 01:55:49;;;;;;;8.82;4.20;;;2.80;79.30;;;;;;4998957;28;20038;-66
2021/01/13 01:58:26;;;;;;;9.32;4.80;;;2.80;79.10;;;;;;4998811;28;20517;-65
2021/01/13 02:00:55;;;;;;;7.28;4.38;;;2.70;79.00;;;;;;5018847;28;20033;-63
2021/01/13 02:03:42;;;;;;;7.18;4.32;;;2.70;79.00;;;;;;5018477;28;20046;-66
2021/01/13 02:06:11;;;;;;;5.97;4.00;;;2.70;79.70;;;;;;5020241;28;20124;-65
2021/01/13 02:08:39;;;;;;;9.10;4.55;;;2.70;78.60;;;;;;5017272;28;20029;-65
2021/01/13 02:11:05;;;;;;;7.55;4.20;;;2.60;78.50;;;;;;5017345;28;20036;-64
2021/01/13 02:13:31;;;;;;;6.38;4.00;;;2.60;78.50;;;;;;5018510;28;20064;-66
2021/01/13 02:15:57;;;;;;;5.43;4.20;;;2.50;78.60;;;;;;5018201;28;20127;-65
2021/01/13 02:18:29;;;;;;;5.22;3.67;;;2.50;78.80;;;;;;5017787;28;20378;-66
2021/01/13 02:21:01;;;;;;;5.65;3.67;;;2.40;79.00;;;;;;5018140;28;20552;-64
2021/01/13 02:23:32;;;;;;;7.25;3.78;;;2.50;79.10;;;;;;5017833;28;20521;-66
2021/01/13 02:26:30;;;;;;;5.63;3.83;;;2.40;79.00;;;;;;5017682;28;20038;-65
2021/01/13 02:29:22;;;;;;;8.30;3.63;;;2.40;78.90;;;;;;5020260;28;20034;-65
2021/01/13 02:32:10;;;;;;;6.07;3.90;;;2.60;78.30;;;;;;5018040;28;20137;-65
2021/01/13 02:35:07;;;;;;;6.57;4.13;;;2.40;78.10;;;;;;5017526;28;20103;-65
2021/01/13 02:38:01;;;;;;;7.40;4.13;;;2.30;78.40;;;;;;5017026;28;20041;-65
2021/01/13 02:40:29;;;;;;;7.00;4.03;;;2.30;78.40;;;;;;5048849;28;20038;-65
2021/01/13 02:43:00;;;;;;;7.80;4.70;;;2.30;78.50;;;;;;5017195;28;20037;-65
2021/01/13 02:45:27;;;;;;;9.43;4.90;;;2.30;78.00;;;;;;5017337;28;20085;-65
2021/01/13 02:47:59;;;;;;;9.63;5.10;;;2.20;77.80;;;;;;5016614;28;20177;-64
2021/01/13 02:50:25;;;;;;;7.25;4.78;;;2.10;78.00;;;;;;5017167;28;20121;-63
2021/01/13 02:53:14;;;;;;;7.63;4.47;;;2.10;78.30;;;;;;5017678;28;20087;-64
2021/01/13 02:56:02;;;;;;;10.02;4.80;;;2.10;78.50;;;;;;5016647;28;20172;-65
2021/01/13 02:58:34;;;;;;;8.00;4.30;;;2.10;78.60;;;;;;5017706;28;20037;-64
2021/01/13 03:01:01;;;;;;;7.63;4.53;;;2.10;78.50;;;;;;5016091;28;20386;-64
2021/01/13 03:03:32;;;;;;;8.75;4.53;;;2.00;78.60;;;;;;5017015;28;20610;-65
2021/01/13 03:06:11;;;;;;;7.43;5.03;;;2.00;78.70;;;;;;5018066;28;20091;-65
2021/01/13 03:09:01;;;;;;;6.53;4.30;;;2.00;78.90;;;;;;5016737;28;20038;-65
2021/01/13 03:11:26;;;;;;;7.70;4.75;;;2.00;79.00;;;;;;5015111;28;20460;-65
2021/01/13 03:14:07;;;;;;;7.20;4.78;;;2.00;79.10;;;;;;5017657;28;20033;-65
2021/01/13 03:16:39;;;;;;;8.98;4.55;;;2.10;79.10;;;;;;5016660;28;20561;-65
2021/01/13 03:19:13;;;;;;;9.70;4.78;;;2.00;79.00;;;;;;5017574;28;20057;-64
2021/01/13 03:22:01;;;;;;;6.40;4.15;;;2.00;79.10;;;;;;5016945;28;20046;-64
2021/01/13 03:24:52;;;;;;;5.70;3.50;;;2.00;79.10;;;;;;5020723;28;20089;-64
2021/01/13 03:27:18;;;;;;;6.35;4.25;;;2.00;79.20;;;;;;5021544;28;20500;-64
2021/01/13 03:29:46;;;;;;;6.05;3.80;;;2.00;79.20;;;;;;5020912;28;20037;-64
2021/01/13 03:32:36;;;;;;;7.50;4.38;;;2.00;79.40;;;;;;5020341;28;20037;-64
2021/01/13 03:35:07;;;;;;;5.07;4.00;;;2.00;79.50;;;;;;5021258;28;20045;-65
2021/01/13 03:37:47;;;;;;;5.72;4.25;;;2.10;79.50;;;;;;5020515;28;20041;-64
2021/01/13 03:40:19;;;;;;;7.93;4.28;;;2.10;79.30;;;;;;5021751;28;20083;-64
2021/01/13 03:42:55;;;;;;;6.22;4.35;;;2.10;79.20;;;;;;5020425;28;20041;-64
2021/01/13 03:45:39;;;;;;;7.90;3.97;;;2.10;79.20;;;;;;5018612;28;20034;-65
2021/01/13 03:48:32;;;;;;;4.53;3.53;;;2.00;79.20;;;;;;5021197;28;20061;-65
2021/01/13 03:50:59;;;;;;;5.60;3.47;;;2.10;79.50;;;;;;5020153;28;20751;-64
2021/01/13 03:53:26;;;;;;;4.47;3.38;;;2.10;79.60;;;;;;5020775;28;20899;-65
2021/01/13 03:55:53;;;;;;;5.60;3.17;;;2.10;79.70;;;;;;5020497;28;20033;-64
2021/01/13 03:58:28;;;;;;;6.55;3.22;;;2.10;79.70;;;;;;5052337;28;20058;-64
2021/01/13 04:01:02;;;;;;;5.22;3.20;;;2.20;79.90;;;;;;5020017;28;20140;-65
2021/01/13 04:03:29;;;;;;;6.13;3.53;;;2.20;79.80;;;;;;5019576;28;20038;-64
2021/01/13 04:06:05;;;;;;;3.90;3.13;;;2.20;79.70;;;;;;5019285;28;20049;-64
2021/01/13 04:08:37;;;;;;;4.40;3.03;;;2.20;79.70;;;;;;5020275;28;20038;-63
2021/01/13 04:11:07;;;;;;;11.40;3.55;;;2.30;79.70;;;;;;5020444;28;20116;-64
2021/01/13 04:13:46;;;;;;;4.00;3.08;;;2.30;79.60;;;;;;5052919;28;20518;-64
2021/01/13 04:16:14;;;;;;;5.28;3.47;;;2.30;79.50;;;;;;5020762;28;20639;-64
2021/01/13 04:18:42;;;;;;;7.22;3.55;;;2.30;79.60;;;;;;5019880;28;20034;-64
2021/01/13 04:21:11;;;;;;;6.05;3.55;;;2.30;79.50;;;;;;5019364;28;20038;-64
2021/01/13 04:23:37;;;;;;;4.63;3.67;;;2.40;79.60;;;;;;5051582;28;20092;-65
2021/01/13 04:26:04;;;;;;;4.40;3.30;;;2.40;79.60;;;;;;5019891;28;20045;-65
2021/01/13 04:28:30;;;;;;;4.63;2.97;;;2.40;79.50;;;;;;5018739;28;20497;-63
2021/01/13 04:30:56;;;;;;;4.97;3.22;;;2.40;79.50;;;;;;5019314;28;20038;-63
2021/01/13 04:33:23;;;;;;;5.78;3.80;;;2.40;79.50;;;;;;5019751;28;20696;-64
2021/01/13 04:35:49;;;;;;;4.65;3.28;;;2.40;79.40;;;;;;5020208;28;20459;-64
2021/01/13 04:38:21;;;;;;;6.90;3.90;;;2.40;79.40;;;;;;5020357;28;20037;-65
2021/01/13 04:41:04;;;;;;;3.88;3.47;;;2.50;79.40;;;;;;5018758;28;20072;-64
2021/01/13 04:43:58;;;;;;;5.03;3.58;;;2.50;79.20;;;;;;5020633;28;20041;-64
2021/01/13 04:46:30;;;;;;;5.82;3.35;;;2.50;79.20;;;;;;5017996;28;20116;-64
2021/01/13 04:49:02;;;;;;;5.07;3.60;;;2.50;79.20;;;;;;5019270;28;20118;-64
2021/01/13 04:51:33;;;;;;;5.38;3.30;;;2.50;79.20;;;;;;5018664;28;20033;-64
2021/01/13 04:54:03;;;;;;;6.43;2.80;;;2.50;79.20;;;;;;5019429;28;20752;-64
2021/01/13 04:56:33;;;;;;;4.80;3.05;;;2.50;79.00;;;;;;5017873;28;20505;-64
2021/01/13 04:59:20;;;;;;;4.18;2.90;;;2.50;79.00;;;;;;5019920;28;20037;-65
2021/01/13 05:02:24;;;;;;;3.53;2.80;;;2.50;78.60;;;;;;5019229;28;20034;-64
2021/01/13 05:05:05;;;;;;;3.90;2.90;;;2.50;78.60;;;;;;5016776;28;20101;-64
2021/01/13 05:07:41;;;;;;;3.33;2.88;;;2.50;78.50;;;;;;5019690;28;20087;-64
2021/01/13 05:10:13;;;;;;;5.10;3.03;;;2.50;78.60;;;;;;5050209;28;20420;-64
2021/01/13 05:12:44;;;;;;;5.75;3.65;;;2.50;78.50;;;;;;5016427;28;20045;-64
2021/01/13 05:15:27;;;;;;;6.13;3.55;;;2.50;78.60;;;;;;5019630;28;20028;-64
2021/01/13 05:18:09;;;;;;;5.28;3.88;;;2.50;78.50;;;;;;5019228;28;20092;-64
2021/01/13 05:20:40;;;;;;;6.63;4.30;;;2.50;78.20;;;;;;5018007;28;20111;-64
2021/01/13 05:23:08;;;;;;;4.07;3.10;;;2.50;78.30;;;;;;5019137;28;20036;-64
2021/01/13 05:25:58;;;;;;;7.45;3.30;;;2.50;78.10;;;;;;5009879;28;20033;-64
2021/01/13 05:28:26;;;;;;;5.05;3.00;;;2.50;77.70;;;;;;5015062;28;20528;-64
2021/01/13 05:30:57;;;;;;;4.50;2.80;;;2.50;77.90;;;;;;5018778;28;20041;-64
2021/01/13 05:33:25;;;;;;;3.40;2.60;;;2.50;77.70;;;;;;5018856;28;20516;-65
2021/01/13 05:35:56;;;;;;;2.38;2.10;;;2.40;77.60;;;;;;5019072;28;20042;-64
2021/01/13 05:38:59;;;;;;;4.40;2.40;;;2.40;77.40;;;;;;5017704;28;20088;-64
2021/01/13 05:41:25;;;;;;;2.47;2.25;;;2.40;77.30;;;;;;5022313;28;20037;-64
2021/01/13 05:43:51;;;;;;;3.75;2.20;;;2.40;77.50;;;;;;5017851;28;20056;-64
2021/01/13 05:46:19;;;;;;;4.63;2.45;;;2.40;77.40;;;;;;5017231;28;20405;-65
2021/01/13 05:48:53;;;;;;;4.93;2.90;;;2.40;77.30;;;;;;5018219;28;20038;-64
2021/01/13 05:51:29;;;;;;;5.18;2.75;;;2.30;77.40;;;;;;5014913;28;20046;-64
2021/01/13 05:53:55;;;;;;;3.78;2.35;;;2.40;77.30;;;;;;5019134;28;20056;-64
2021/01/13 05:56:21;;;;;;;4.00;2.42;;;2.30;77.30;;;;;;5018289;28;20057;-65
2021/01/13 05:58:59;;;;;;;5.60;2.40;;;2.30;77.30;;;;;;5018441;28;20518;-64
2021/01/13 06:01:53;;;;;;;3.15;2.15;;;2.30;77.30;;;;;;5018603;28;20055;-63
2021/01/13 06:04:21;;;;;;;4.53;2.55;;;2.30;77.20;;;;;;5019174;28;20046;-64
2021/01/13 06:07:13;;;;;;;5.00;2.50;;;2.30;77.40;;;;;;5018371;28;20037;-63
2021/01/13 06:09:43;;;;;;;3.65;2.50;;;2.30;77.10;;;;;;5017801;28;20104;-64
2021/01/13 06:12:17;;;;;;;3.30;2.78;;;2.20;77.10;;;;;;5018859;28;20061;-64
2021/01/13 06:14:43;;;;;;;5.43;2.80;;;2.30;77.10;;;;;;5017354;28;20440;-64
2021/01/13 06:17:22;;;;;;;3.35;2.55;;;2.20;77.10;;;;;;5017840;28;20049;-64
2021/01/13 06:19:52;;;;;;;5.00;2.45;;;2.20;76.90;;;;;;5017499;28;20475;-64
2021/01/13 06:22:27;;;;;;;3.63;2.60;;;2.20;77.10;;;;;;5013620;28;20491;-63
2021/01/13 06:24:58;;;;;;;5.32;2.67;;;2.20;77.10;;;;;;5016151;28;20115;-64
2021/01/13 06:27:44;;;;;;;4.50;2.42;;;2.10;77.30;;;;;;5017453;28;20116;-64
2021/01/13 06:30:18;;;;;;;4.07;2.55;;;2.10;77.10;;;;;;5016461;28;20029;-63
2021/01/13 06:33:10;;;;;;;3.50;2.60;;;2.10;77.10;;;;;;5017532;28;20045;-64
2021/01/13 06:35:42;;;;;;;5.90;3.10;;;2.10;77.00;;;;;;5030740;28;20117;-65
2021/01/13 06:38:14;;;;;;;5.05;3.00;;;2.10;77.10;;;;;;5017479;28;20395;-64
2021/01/13 06:40:41;;;;;;;7.95;3.00;;;2.10;77.20;;;;;;5017225;28;20269;-64
2021/01/13 06:43:14;;;;;;;5.35;3.10;;;2.10;77.10;;;;;;5017660;28;20056;-64
2021/01/13 06:45:40;;;;;;;6.53;3.50;;;2.10;76.80;;;;;;5016902;28;20484;-64
2021/01/13 06:48:07;;;;;;;7.07;3.75;;;2.10;76.90;;;;;;5017637;28;20034;-64
2021/01/13 06:50:37;;;;;;;4.35;3.25;;;2.10;76.80;;;;;;5015129;28;20026;-64
2021/01/13 06:53:09;;;;;;;4.45;2.70;;;2.00;76.50;;;;;;5014144;28;20113;-65
2021/01/13 06:55:38;;;;;;;5.63;3.38;;;2.00;76.50;;;;;;5016232;28;20030;-65
2021/01/13 06:58:11;;;;;;;2.75;2.50;;;2.00;76.60;;;;;;5021252;28;20132;-63
2021/01/13 07:00:36;;;;;;;5.47;2.88;;;1.90;76.60;;;;;;5021815;28;20508;-64
2021/01/13 07:03:29;;;;;;;6.10;3.05;;;2.00;76.90;;;;;;5022085;28;20040;-66
2021/01/13 07:06:09;;;;;;;6.35;3.60;;;2.00;76.40;;;;;;5020698;28;20030;-64
2021/01/13 07:08:35;;;;;;;5.50;3.35;;;1.90;76.30;;;;;;5020511;28;20499;-64
2021/01/13 07:11:08;;;;;;;4.47;3.25;;;1.90;76.40;;;;;;5018491;28;20048;-64
2021/01/13 07:13:47;;;;;;;6.25;3.25;;;1.90;76.50;;;;;;5019123;28;20033;-64
2021/01/13 07:16:15;;;;;;;5.43;3.05;;;1.90;76.60;;;;;;5021517;28;20129;-65
2021/01/13 07:18:41;;;;;;;13.18;3.10;;;1.90;76.70;;;;;;5019557;28;20053;-65
2021/01/13 07:21:11;;;;;;;5.25;3.22;;;1.90;76.80;;;;;;5021752;28;20087;-64
2021/01/13 07:23:44;;;;;;;5.90;2.65;;;1.80;76.70;;;;;;5019917;28;20409;-65
2021/01/13 07:26:14;;;;;;;3.97;2.75;;;1.80;76.70;;;;;;5020459;28;20026;-64
2021/01/13 07:28:41;;;;;;;6.55;2.22;;;1.80;76.80;;;;;;5019068;28;20564;-64
2021/01/13 07:31:08;;;;;;;3.45;2.15;;;1.80;76.80;;;;;;5021011;28;20092;-65
2021/01/13 07:33:44;;;;;;;4.97;2.20;;;1.90;76.90;;;;;;5021301;28;20088;-64
2021/01/13 07:36:18;;;;;;;3.40;2.30;;;1.90;76.80;;;;;;5027733;28;20070;-64
2021/01/13 07:38:51;;;;;;;2.97;2.20;;;1.90;76.70;;;;;;5052056;28;20065;-65
2021/01/13 07:41:53;;;;;;;4.72;2.80;;;1.90;76.70;;;;;;5050987;28;20719;-64
2021/01/13 07:44:55;;;;;;;14.68;5.80;;;1.90;76.70;;;;;;5018299;28;20463;-65
2021/01/13 07:47:47;;;;;;;16.27;5.43;;;1.90;76.60;;;;;;5052512;28;20113;-65
2021/01/13 07:50:15;;;;;;;12.95;4.75;;;1.90;76.60;;;;;;5020391;28;20038;-65
2021/01/13 07:52:49;;;;;;;13.65;5.53;;;1.90;76.90;;;;;;5020479;28;20042;-65
2021/01/13 07:55:21;;;;;;;5.53;3.40;;;1.90;76.70;;;;;;5020101;28;20561;-64
2021/01/13 07:57:55;;;;;;;5.32;2.70;;;1.90;76.70;;;;;;5018844;28;20062;-64
2021/01/13 08:00:34;;;;;;;5.05;2.78;;;2.00;76.70;;;;;;5020361;28;20038;-64
2021/01/13 08:03:18;;;;;;;4.13;2.95;;;1.90;76.70;;;;;;5013186;28;20046;-64
2021/01/13 08:06:21;;;;;;;5.28;3.00;;;1.90;76.70;;;;;;5020490;28;20040;-64
2021/01/13 08:09:07;;;;;;;4.20;2.78;;;1.90;76.70;;;;;;5018027;28;20036;-64
2021/01/13 08:11:38;;;;;;;8.63;3.42;;;1.90;76.60;;;;;;5016911;28;20041;-64
2021/01/13 08:14:29;;;;;;;6.38;3.28;;;1.90;76.80;;;;;;5019732;28;20022;-64
2021/01/13 08:17:16;;;;;;;4.68;3.05;;;1.90;76.60;;;;;;5017886;28;20116;-64
2021/01/13 08:20:22;;;;;;;4.25;2.60;;;1.90;76.70;;;;;;5017541;28;20112;-64
2021/01/13 08:23:07;;;;;;;5.97;3.35;;;1.90;76.70;;;;;;5014410;28;20033;-64
2021/01/13 08:25:42;;;;;;;4.93;2.95;;;1.80;76.70;;;;;;5016349;28;20057;-64
2021/01/13 08:28:12;;;;;;;9.23;2.95;;;1.80;76.90;;;;;;5018247;28;20029;-64
2021/01/13 08:30:42;;;;;;;7.00;3.05;;;1.80;77.10;;;;;;5001458;28;20037;-64
2021/01/13 08:33:19;;;;;;;3.35;2.95;;;1.80;77.30;;;;;;5013131;28;20502;-64
2021/01/13 08:35:58;;;;;;;6.03;3.05;;;1.90;77.40;;;;;;5000517;28;20401;-64
2021/01/13 08:38:25;;;;;;;6.85;4.05;;;1.90;77.50;;;;;;4996241;28;20508;-64
2021/01/13 08:40:52;;;;;;;7.18;3.28;;;1.90;77.60;;;;;;4998704;28;20038;-64
2021/01/13 08:43:19;;;;;;;6.60;3.17;;;1.90;77.60;;;;;;4999427;28;20041;-65
2021/01/13 08:45:49;;;;;;;10.20;3.72;;;2.00;77.60;;;;;;4999280;28;20149;-64
2021/01/13 08:48:22;;;;;;;6.07;3.83;;;2.00;77.60;;;;;;4999822;28;20046;-64
2021/01/13 08:51:03;;;;;;;10.18;3.42;;;2.00;77.50;;;;;;5018402;28;20053;-64
2021/01/13 08:53:29;;;;;;;6.55;3.20;;;2.00;77.40;;;;;;5019098;28;20056;-63
2021/01/13 08:55:55;;;;;;;5.97;3.30;;;2.10;77.50;;;;;;5018233;28;20758;-64
2021/01/13 08:58:52;;;;;;;5.57;3.30;;;2.10;77.60;;;;;;5015940;28;20120;-65
2021/01/13 09:01:18;;;;;;;9.60;3.33;;;2.10;77.40;;;;;;5018508;28;20037;-64
2021/01/13 09:03:50;;;;;;;13.18;6.95;;;2.10;77.50;;;;;;5019213;28;21497;-65
2021/01/13 09:06:21;;;;;;;6.63;3.50;;;2.20;77.60;;;;;;5018762;28;20044;-65
2021/01/13 09:08:51;;;;;;;18.15;7.90;;;2.20;77.70;;;;;;5017822;28;20095;-65
2021/01/13 09:11:33;;;;;;;18.85;8.27;;;2.20;77.60;;;;;;5016851;28;20068;-65
2021/01/13 09:14:22;;;;;;;8.23;3.90;;;2.30;77.80;;;;;;5017334;28;20092;-64
2021/01/13 09:16:52;;;;;;;7.70;3.55;;;2.40;77.70;;;;;;5019901;28;20090;-65
2021/01/13 09:19:30;;;;;;;7.80;3.72;;;2.40;78.30;;;;;;5032495;28;20044;-65
2021/01/13 09:22:00;;;;;;;17.90;6.18;;;2.40;77.40;;;;;;5017867;28;20053;-65
2021/01/13 09:24:37;;;;;;;7.75;4.00;;;2.50;77.60;;;;;;5018447;28;20077;-64
2021/01/13 09:27:04;;;;;;;11.13;4.93;;;2.50;77.60;;;;;;5017837;28;20032;-65
2021/01/13 09:29:46;;;;;;;8.95;4.20;;;2.50;77.50;;;;;;5017346;28;20038;-64
2021/01/13 09:32:15;;;;;;;7.30;3.35;;;2.60;77.40;;;;;;5018495;28;20030;-65
2021/01/13 09:34:41;;;;;;;6.63;3.65;;;2.60;77.40;;;;;;5017912;28;20075;-65
2021/01/13 09:37:07;;;;;;;8.90;3.05;;;2.70;77.50;;;;;;5017603;28;20045;-65
2021/01/13 09:39:38;;;;;;;6.55;3.60;;;2.70;77.30;;;;;;5017485;28;20033;-65
2021/01/13 09:42:06;;;;;;;7.38;3.03;;;2.70;77.20;;;;;;5017246;28;20046;-65
2021/01/13 09:44:34;;;;;;;7.13;3.15;;;2.80;77.10;;;;;;5018051;28;20038;-65
2021/01/13 09:47:23;;;;;;;6.70;3.10;;;2.80;77.00;;;;;;5018289;28;20409;-65
2021/01/13 09:49:53;;;;;;;8.88;3.20;;;2.80;76.70;;;;;;5031788;28;20069;-64
2021/01/13 09:52:19;;;;;;;4.75;2.95;;;2.80;76.90;;;;;;5018704;28;20037;-65
2021/01/13 09:54:49;;;;;;;5.30;3.10;;;2.80;76.90;;;;;;5017932;28;20038;-64
2021/01/13 09:57:16;;;;;;;6.38;3.20;;;2.90;76.90;;;;;;5017910;28;20042;-65
2021/01/13 09:59:59;;;;;;;4.50;2.97;;;2.90;76.80;;;;;;5018495;28;20657;-65
2021/01/13 10:02:27;;;;;;;5.35;2.97;;;2.90;75.90;;;;;;5017495;28;20040;-64
2021/01/13 10:04:52;;;;;;;4.05;2.47;;;2.90;76.20;;;;;;5018676;28;20022;-64
2021/01/13 10:07:22;;;;;;;3.70;2.83;;;3.00;76.20;;;;;;5018438;28;20307;-64
2021/01/13 10:09:51;;;;;;;6.05;2.88;;;3.00;76.10;;;;;;5017560;28;20033;-65
2021/01/13 10:12:18;;;;;;;4.70;2.80;;;3.00;76.20;;;;;;5020079;28;20103;-65
2021/01/13 10:14:53;;;;;;;6.68;3.13;;;3.00;76.20;;;;;;5017587;28;20555;-65
2021/01/13 10:17:25;;;;;;;6.32;3.10;;;3.10;76.00;;;;;;5014170;28;20044;-65
2021/01/13 10:19:52;;;;;;;7.32;2.83;;;3.10;76.00;;;;;;5018100;28;20068;-66
2021/01/13 10:22:24;;;;;;;6.93;2.60;;;3.10;76.00;;;;;;5016083;28;20053;-65
2021/01/13 10:24:50;;;;;;;8.63;2.90;;;3.20;75.80;;;;;;5013323;28;20046;-65
2021/01/13 10:27:18;;;;;;;6.82;2.50;;;3.20;75.80;;;;;;5013475;28;20045;-65
2021/01/13 10:29:47;;;;;;;4.28;2.50;;;3.20;75.80;;;;;;5014296;28;20029;-64
2021/01/13 10:32:14;;;;;;;3.50;2.20;;;3.20;75.60;;;;;;5017090;28;20041;-64
2021/01/13 10:34:41;;;;;;;4.68;2.53;;;3.20;75.60;;;;;;5016095;28;20029;-65
2021/01/13 10:37:07;;;;;;;5.47;2.38;;;3.30;75.40;;;;;;5015524;28;20066;-65
2021/01/13 10:39:33;;;;;;;3.13;2.20;;;3.30;75.50;;;;;;5048466;28;20064;-65
2021/01/13 10:42:07;;;;;;;7.20;2.17;;;3.30;75.30;;;;;;5016989;28;20053;-65
2021/01/13 10:44:34;;;;;;;4.38;2.20;;;3.30;75.20;;;;;;5017330;28;20100;-65
2021/01/13 10:47:04;;;;;;;5.57;2.40;;;3.30;74.80;;;;;;5017395;28;20080;-65
2021/01/13 10:49:40;;;;;;;2.70;2.03;;;3.30;74.80;;;;;;5016008;28;20034;-65
2021/01/13 10:52:16;;;;;;;4.93;2.20;;;3.40;74.50;;;;;;5017854;28;20280;-66
2021/01/13 10:54:45;;;;;;;3.45;1.83;;;3.40;74.10;;;;;;5016927;28;20051;-65
2021/01/13 10:57:17;;;;;;;6.78;2.00;;;3.40;74.20;;;;;;5016688;28;20570;-65
2021/01/13 10:59:44;;;;;;;3.58;1.70;;;3.40;74.30;;;;;;5015155;28;20037;-65
2021/01/13 11:02:12;;;;;;;7.72;1.80;;;3.50;74.50;;;;;;5014645;28;20046;-65
2021/01/13 11:04:45;;;;;;;1.92;1.70;;;3.50;75.10;;;;;;5016562;28;20244;-66
2021/01/13 11:07:11;;;;;;;4.05;2.30;;;3.50;74.20;;;;;;5013274;28;20061;-65
2021/01/13 11:09:46;;;;;;;4.93;1.67;;;3.60;74.50;;;;;;5013458;28;20103;-65
2021/01/13 11:12:17;;;;;;;;;;;3.60;74.10;;;;;;5016438;28;20057;-65
2021/01/13 11:14:47;;;;;;;4.50;1.75;;;3.60;73.20;;;;;;5015953;28;20312;-66
2021/01/13 11:17:19;;;;;;;15.95;5.60;;;3.70;74.50;;;;;;5016605;28;20431;-65
2021/01/13 11:20:07;;;;;;;9.70;3.80;;;3.70;73.60;;;;;;5018055;28;20037;-66
2021/01/13 11:22:45;;;;;;;9.10;3.50;;;3.70;73.30;;;;;;5016534;28;20044;-65
2021/01/13 11:25:34;;;;;;;13.98;5.28;;;3.70;73.90;;;;;;5047424;28;20370;-64
2021/01/13 11:28:06;;;;;;;24.88;8.55;;;3.80;73.10;;;;;;5016935;28;20034;-66
2021/01/13 11:30:36;;;;;;;8.63;4.30;;;3.80;73.30;;;;;;5015720;28;20034;-65
2021/01/13 11:33:03;;;;;;;10.20;4.95;;;3.80;73.30;;;;;;5016259;28;20030;-66
2021/01/13 11:35:31;;;;;;;16.13;6.55;;;3.80;72.70;;;;;;5015981;28;20164;-65
2021/01/13 11:38:16;;;;;;;12.88;5.03;;;3.80;72.90;;;;;;5017365;28;20034;-67
2021/01/13 11:41:29;;;;;;;11.65;4.72;;;3.80;72.40;;;;;;5016970;28;20501;-65
2021/01/13 11:44:18;;;;;;;6.45;2.92;;;3.80;72.00;;;;;;5017066;28;20121;-65
2021/01/13 11:46:57;;;;;;;10.82;4.55;;;3.90;72.70;;;;;;5013836;28;20440;-64
2021/01/13 11:49:26;;;;;;;9.85;3.20;;;3.80;72.40;;;;;;5035710;28;20037;-67
2021/01/13 11:51:53;;;;;;;6.05;2.42;;;3.90;72.50;;;;;;5018439;28;20026;-66
2021/01/13 11:54:27;;;;;;;7.22;3.08;;;3.90;72.30;;;;;;5019920;28;20420;-64
2021/01/13 11:56:53;;;;;;;3.95;2.40;;;3.90;72.90;;;;;;5017436;28;20030;-64
2021/01/13 11:59:29;;;;;;;3.05;1.40;;;3.90;72.00;;;;;;5020061;28;20037;-64
2021/01/13 12:01:59;;;;;;;2.97;1.50;;;4.00;71.10;;;;;;5017743;28;20038;-65
2021/01/13 12:04:25;;;;;;;4.35;1.20;;;4.00;71.80;;;;;;5020549;28;20221;-63
2021/01/13 12:06:58;;;;;;;2.30;1.20;;;4.10;71.70;;;;;;5020203;28;20030;-65
2021/01/13 12:09:24;;;;;;;1.50;1.27;;;4.10;71.40;;;;;;5019514;28;20040;-66
2021/01/13 12:11:50;;;;;;;1.58;1.40;;;4.10;70.90;;;;;;5017912;28;20046;-65
2021/01/13 12:14:16;;;;;;;2.75;1.45;;;4.20;70.80;;;;;;5019406;28;20083;-65
2021/01/13 12:16:41;;;;;;;2.28;1.33;;;4.20;70.50;;;;;;5018842;28;20045;-65
2021/01/13 12:19:07;;;;;;;2.42;1.30;;;4.20;70.80;;;;;;5019258;28;20037;-64
2021/01/13 12:21:34;;;;;;;1.77;1.27;;;4.30;70.90;;;;;;5019545;28;20477;-64
2021/01/13 12:24:13;;;;;;;3.42;0.98;;;4.40;71.30;;;;;;5019781;28;20038;-63
2021/01/13 12:26:40;;;;;;;2.03;1.10;;;4.40;69.50;;;;;;5020184;28;20042;-65
2021/01/13 12:29:08;;;;;;;1.10;0.90;;;4.50;69.20;;;;;;5018439;28;20038;-64
2021/01/13 12:31:41;;;;;;;2.47;1.00;;;4.60;69.80;;;;;;5018926;28;20392;-65
2021/01/13 12:34:14;;;;;;;2.15;1.00;;;4.60;68.80;;;;;;5018387;28;20069;-65
2021/01/13 12:36:43;;;;;;;3.72;1.50;;;4.70;69.60;;;;;;5019822;28;20121;-65
2021/01/13 12:39:09;;;;;;;2.95;1.55;;;4.70;70.50;;;;;;5016914;28;20033;-67
2021/01/13 12:41:36;;;;;;;3.28;1.70;;;4.70;69.00;;;;;;5018106;28;20674;-67
2021/01/13 12:44:09;;;;;;;3.55;1.70;;;4.70;68.20;;;;;;5019773;28;20034;-64
2021/01/13 12:46:37;;;;;;;2.60;1.75;;;4.80;68.50;;;;;;5018534;28;20037;-65
2021/01/13 12:49:04;;;;;;;5.05;2.20;;;4.80;69.10;;;;;;5018433;28;20030;-64
2021/01/13 12:51:30;;;;;;;2.85;2.13;;;4.80;69.20;;;;;;5018414;28;20037;-65
2021/01/13 12:53:58;;;;;;;3.80;2.22;;;4.70;69.50;;;;;;5017991;28;20033;-64
2021/01/13 12:56:25;;;;;;;4.20;2.08;;;4.70;69.70;;;;;;5016956;28;20034;-65
2021/01/13 12:58:51;;;;;;;3.58;2.30;;;4.80;69.40;;;;;;5017335;28;20311;-66
2021/01/13 13:01:17;;;;;;;3.88;2.20;;;4.70;69.10;;;;;;5016627;28;20042;-64
2021/01/13 13:03:44;;;;;;;4.85;2.35;;;4.70;69.40;;;;;;5018271;28;20159;-65
2021/01/13 13:06:09;;;;;;;4.45;2.65;;;4.70;69.60;;;;;;5017625;28;20045;-65
2021/01/13 13:08:36;;;;;;;6.13;2.72;;;4.70;69.50;;;;;;5017584;28;20141;-66
2021/01/13 13:11:07;;;;;;;4.20;2.60;;;4.70;68.90;;;;;;5014198;28;20042;-65
2021/01/13 13:13:33;;;;;;;7.40;3.10;;;4.70;70.40;;;;;;5018870;28;20037;-64
2021/01/13 13:15:58;;;;;;;5.70;3.38;;;4.60;69.30;;;;;;5018149;28;20034;-65
2021/01/13 13:18:24;;;;;;;7.00;4.00;;;4.60;69.20;;;;;;5018262;28;20408;-66
2021/01/13 13:20:50;;;;;;;5.47;3.55;;;4.60;69.30;;;;;;5017369;28;20041;-66
2021/01/13 13:23:16;;;;;;;7.20;4.50;;;4.50;69.60;;;;;;5018197;28;20117;-66